createdAt,value
2017-11-30T00:02:19.788Z,97046.91
2017-11-30T00:04:48.111Z,97050.69
2017-11-30T00:07:16.407Z,97043.77
2017-11-30T00:09:44.719Z,97040.41
2017-11-30T00:12:13.020Z,97053.54
2017-11-30T00:14:42.106Z,97048.92
2017-11-30T00:17:10.393Z,97045.82
2017-11-30T00:19:39.471Z,97046.08
2017-11-30T00:22:07.766Z,97035.67
2017-11-30T00:24:36.833Z,97034.17
2017-11-30T00:27:05.142Z,97035.02
2017-11-30T00:29:34.204Z,97027.63
2017-11-30T00:32:02.518Z,97038.90
2017-11-30T00:34:31.649Z,97032.19
2017-11-30T00:36:59.995Z,97021.09
2017-11-30T00:39:28.327Z,97020.06
2017-11-30T00:41:56.674Z,97019.30
2017-11-30T00:44:34.940Z,97010.59
2017-11-30T00:47:04.063Z,97019.34
2017-11-30T00:49:32.388Z,97016.79
2017-11-30T00:52:00.728Z,97009.73
2017-11-30T00:54:29.042Z,97011.33
2017-11-30T00:56:57.359Z,97014.20
2017-11-30T00:59:26.421Z,97009.20
2017-11-30T01:01:54.750Z,97014.20
2017-11-30T01:04:23.076Z,97013.17
2017-11-30T01:06:51.404Z,97006.20
2017-11-30T01:09:19.716Z,97003.78
2017-11-30T01:11:48.078Z,97007.64
2017-11-30T01:14:16.394Z,97008.48
2017-11-30T01:16:44.698Z,97007.66
2017-11-30T01:19:13.035Z,97007.23
2017-11-30T01:21:41.364Z,97011.05
2017-11-30T01:24:09.661Z,97015.00
2017-11-30T01:26:38.008Z,97010.45
2017-11-30T01:29:06.338Z,97009.98
2017-11-30T01:31:34.643Z,97009.19
2017-11-30T01:34:03.735Z,97005.58
2017-11-30T01:36:32.853Z,97007.57
2017-11-30T01:39:01.196Z,97010.50
2017-11-30T01:41:29.524Z,97006.40
2017-11-30T01:43:57.843Z,97011.75
2017-11-30T01:46:26.163Z,97009.88
2017-11-30T01:48:54.496Z,97014.61
2017-11-30T01:51:22.849Z,97009.48
2017-11-30T01:53:51.161Z,97008.13
2017-11-30T01:56:19.512Z,97008.84
2017-11-30T01:58:47.847Z,96998.03
2017-11-30T02:01:16.170Z,96997.50
2017-11-30T02:03:44.507Z,96995.27
2017-11-30T02:06:12.854Z,96994.34
2017-11-30T02:08:41.933Z,96996.38
2017-11-30T02:11:10.277Z,96998.47
2017-11-30T02:13:38.590Z,96993.38
2017-11-30T02:16:06.948Z,96989.24
2017-11-30T02:18:35.300Z,96989.36
2017-11-30T02:21:03.631Z,96991.98
2017-11-30T02:23:31.940Z,96990.66
2017-11-30T02:26:00.278Z,96984.75
2017-11-30T02:28:28.619Z,96987.27
2017-11-30T02:30:56.953Z,96983.58
2017-11-30T02:33:26.046Z,96990.83
2017-11-30T02:35:55.165Z,96980.38
2017-11-30T02:38:23.532Z,96980.88
2017-11-30T02:40:51.820Z,96977.97
2017-11-30T02:43:20.157Z,96978.33
2017-11-30T02:45:48.478Z,96972.41
2017-11-30T02:48:16.819Z,96972.19
2017-11-30T02:50:45.922Z,96971.27
2017-11-30T02:53:15.011Z,96970.33
2017-11-30T02:55:44.099Z,96967.44
2017-11-30T02:58:13.208Z,96962.16
2017-11-30T03:00:42.300Z,96962.67
2017-11-30T03:03:11.388Z,96963.50
2017-11-30T03:05:39.711Z,96961.05
2017-11-30T03:08:08.029Z,96963.45
2017-11-30T03:10:36.353Z,96957.84
2017-11-30T03:13:04.685Z,96951.98
2017-11-30T03:15:32.995Z,96953.26
2017-11-30T03:18:01.336Z,96948.12
2017-11-30T03:20:29.645Z,96945.39
2017-11-30T03:22:57.961Z,96950.70
2017-11-30T03:25:26.286Z,96945.39
2017-11-30T03:27:55.350Z,96946.38
2017-11-30T03:30:23.681Z,96941.38
2017-11-30T03:32:52.021Z,96942.61
2017-11-30T03:35:20.351Z,96935.46
2017-11-30T03:37:48.700Z,96934.61
2017-11-30T03:40:17.788Z,96935.89
2017-11-30T03:42:46.891Z,96937.41
2017-11-30T03:45:15.213Z,96939.00
2017-11-30T03:47:43.536Z,96933.52
2017-11-30T03:50:12.628Z,96936.48
2017-11-30T03:52:41.705Z,96938.66
2017-11-30T03:55:10.025Z,96938.35
2017-11-30T03:57:38.343Z,96938.09
2017-11-30T04:00:07.444Z,96942.78
2017-11-30T04:02:35.740Z,96936.90
2017-11-30T04:05:04.084Z,96929.07
2017-11-30T04:07:32.427Z,96930.00
2017-11-30T04:10:00.800Z,96933.51
2017-11-30T04:12:29.135Z,96930.63
2017-11-30T04:14:57.468Z,96930.34
2017-11-30T04:17:25.819Z,96932.31
2017-11-30T04:19:54.893Z,96924.00
2017-11-30T04:22:23.239Z,96923.22
2017-11-30T04:24:51.551Z,96925.82
2017-11-30T04:27:19.883Z,96922.41
2017-11-30T04:29:48.189Z,96925.30
2017-11-30T04:32:16.497Z,96919.98
2017-11-30T04:34:45.568Z,96925.92
2017-11-30T04:37:13.869Z,96921.78
2017-11-30T04:39:42.939Z,96920.58
2017-11-30T04:42:11.271Z,96920.85
2017-11-30T04:44:39.604Z,96916.25
2017-11-30T04:47:08.675Z,96919.99
2017-11-30T04:49:36.989Z,96922.83
2017-11-30T04:52:06.079Z,96923.95
2017-11-30T04:54:35.162Z,96923.97
2017-11-30T04:57:03.496Z,96918.92
2017-11-30T04:59:31.811Z,96915.05
2017-11-30T05:02:00.128Z,96918.24
2017-11-30T05:04:28.434Z,96920.44
2017-11-30T05:06:56.775Z,96919.92
2017-11-30T05:09:25.105Z,96922.27
2017-11-30T05:11:53.443Z,96921.11
2017-11-30T05:14:21.761Z,96914.20
2017-11-30T05:16:50.088Z,96916.02
2017-11-30T05:19:18.414Z,96918.12
2017-11-30T05:21:46.744Z,96913.16
2017-11-30T05:24:15.044Z,96916.55
2017-11-30T05:26:43.388Z,96915.92
2017-11-30T05:29:11.703Z,96917.70
2017-11-30T05:31:40.062Z,96918.88
2017-11-30T05:34:08.374Z,96913.82
2017-11-30T05:36:36.741Z,96913.72
2017-11-30T05:39:05.074Z,96912.74
2017-11-30T05:41:33.389Z,96904.36
2017-11-30T05:44:01.702Z,96907.72
2017-11-30T05:46:30.000Z,96913.61
2017-11-30T05:48:59.104Z,96907.66
2017-11-30T05:51:27.412Z,96910.23
2017-11-30T05:53:55.731Z,96906.42
2017-11-30T05:56:24.865Z,96896.45
2017-11-30T05:58:53.201Z,96907.09
2017-11-30T06:01:21.509Z,96895.80
2017-11-30T06:03:49.835Z,96899.06
2017-11-30T06:06:18.171Z,96903.22
2017-11-30T06:08:46.501Z,96910.56
2017-11-30T06:11:14.836Z,96902.91
2017-11-30T06:13:43.169Z,96895.32
2017-11-30T06:16:12.264Z,96896.16
2017-11-30T06:18:41.351Z,96894.22
2017-11-30T06:21:09.695Z,96890.88
2017-11-30T06:23:38.809Z,96889.80
2017-11-30T06:26:07.118Z,96892.89
2017-11-30T06:28:36.201Z,96892.59
2017-11-30T06:31:04.512Z,96893.70
2017-11-30T06:33:32.836Z,96893.63
2017-11-30T06:36:01.189Z,96896.06
2017-11-30T06:38:30.287Z,96897.52
2017-11-30T06:40:58.609Z,96896.63
2017-11-30T06:43:27.679Z,96908.20
2017-11-30T06:45:55.965Z,96902.62
2017-11-30T06:48:24.261Z,96904.67
2017-11-30T06:50:53.310Z,96910.79
2017-11-30T06:53:21.579Z,96916.92
2017-11-30T06:55:49.895Z,96912.10
2017-11-30T06:58:18.190Z,96908.56
2017-11-30T07:00:47.309Z,96916.75
2017-11-30T07:03:15.625Z,96914.87
2017-11-30T07:05:43.930Z,96916.43
2017-11-30T07:08:13.044Z,96913.93
2017-11-30T07:10:41.393Z,96916.97
2017-11-30T07:13:10.516Z,96920.29
2017-11-30T07:15:38.830Z,96917.45
2017-11-30T07:18:07.146Z,96921.03
2017-11-30T07:20:35.480Z,96917.59
2017-11-30T07:23:03.797Z,96922.20
2017-11-30T07:25:32.896Z,96930.83
2017-11-30T07:28:01.990Z,96934.63
2017-11-30T07:30:31.075Z,96933.83
2017-11-30T07:33:00.188Z,96935.20
2017-11-30T07:35:29.296Z,96936.30
2017-11-30T07:37:57.613Z,96939.79
2017-11-30T07:40:25.911Z,96947.30
2017-11-30T07:42:54.224Z,96945.22
2017-11-30T07:45:23.288Z,96943.50
2017-11-30T07:47:51.629Z,96951.05
2017-11-30T07:50:19.947Z,96952.35
2017-11-30T07:52:48.280Z,96954.77
2017-11-30T07:55:16.611Z,96950.31
2017-11-30T07:57:45.712Z,96958.41
2017-11-30T08:00:14.808Z,96957.67
2017-11-30T08:02:43.909Z,96955.91
2017-11-30T08:05:13.009Z,96950.73
2017-11-30T08:07:41.351Z,96951.73
2017-11-30T08:10:09.696Z,96957.47
2017-11-30T08:12:38.037Z,96953.18
2017-11-30T08:15:07.589Z,96955.34
2017-11-30T08:17:35.899Z,96955.13
2017-11-30T08:20:04.255Z,96948.13
2017-11-30T08:22:32.600Z,96953.02
2017-11-30T08:25:00.913Z,96959.96
2017-11-30T08:27:29.225Z,96959.29
2017-11-30T08:29:58.315Z,96954.92
2017-11-30T08:32:27.436Z,96963.22
2017-11-30T08:34:55.781Z,96958.63
2017-11-30T08:37:24.911Z,96951.47
2017-11-30T08:39:53.259Z,96957.73
2017-11-30T08:42:22.338Z,96956.47
2017-11-30T08:44:50.649Z,96958.26
2017-11-30T08:47:19.004Z,96958.05
2017-11-30T08:49:47.358Z,96956.60
2017-11-30T08:52:15.696Z,96962.66
2017-11-30T08:54:44.030Z,96967.94
2017-11-30T08:57:12.341Z,96967.98
2017-11-30T08:59:41.433Z,96971.08
2017-11-30T09:02:09.758Z,96978.16
2017-11-30T09:04:38.069Z,96978.28
2017-11-30T09:07:07.156Z,96983.73
2017-11-30T09:09:35.489Z,96979.53
2017-11-30T09:12:03.803Z,96975.80
2017-11-30T09:14:32.113Z,96978.64
2017-11-30T09:17:00.410Z,96976.13
2017-11-30T09:19:28.732Z,96980.27
2017-11-30T09:21:57.049Z,96980.70
2017-11-30T09:24:25.365Z,96974.54
2017-11-30T09:26:53.712Z,96977.95
2017-11-30T09:29:22.057Z,96977.89
2017-11-30T09:31:51.130Z,96978.97
2017-11-30T09:34:19.460Z,96981.25
2017-11-30T09:36:47.801Z,96979.11
2017-11-30T09:39:16.139Z,96973.86
2017-11-30T09:41:44.478Z,96972.38
2017-11-30T09:44:13.573Z,96971.22
2017-11-30T09:46:41.909Z,96963.07
2017-11-30T09:49:10.249Z,96964.94
2017-11-30T09:51:38.563Z,96968.14
2017-11-30T09:54:06.890Z,96959.45
2017-11-30T09:56:35.236Z,96966.75
2017-11-30T09:59:03.547Z,96957.78
2017-11-30T10:01:31.860Z,96948.96
2017-11-30T10:04:00.184Z,96950.91
2017-11-30T10:06:29.293Z,96945.30
2017-11-30T10:08:58.380Z,96945.00
2017-11-30T10:11:27.476Z,96947.08
2017-11-30T10:13:55.770Z,96954.52
2017-11-30T10:16:24.082Z,96944.41
2017-11-30T10:18:52.400Z,96958.43
2017-11-30T10:21:21.500Z,96946.30
2017-11-30T10:23:50.604Z,96949.41
2017-11-30T10:26:18.917Z,96943.98
2017-11-30T10:28:47.251Z,96945.31
2017-11-30T10:31:15.576Z,96947.20
2017-11-30T10:33:43.891Z,96941.34
2017-11-30T10:36:12.986Z,96946.63
2017-11-30T10:38:42.067Z,96953.48
2017-11-30T10:41:10.368Z,96950.88
2017-11-30T10:43:39.454Z,96958.39
2017-11-30T10:46:08.547Z,96940.40
2017-11-30T10:48:37.650Z,96943.22
2017-11-30T10:51:06.702Z,96955.82
2017-11-30T10:53:35.026Z,96936.05
2017-11-30T10:56:03.348Z,96943.72
2017-11-30T10:58:31.685Z,96953.26
2017-11-30T11:00:59.999Z,96957.86
2017-11-30T11:03:28.356Z,96962.97
2017-11-30T11:05:56.677Z,96970.17
2017-11-30T11:08:25.016Z,96964.72
2017-11-30T11:10:53.323Z,96973.14
2017-11-30T11:13:21.658Z,96970.55
2017-11-30T11:15:49.981Z,96984.73
2017-11-30T11:18:18.305Z,96977.91
2017-11-30T11:20:46.632Z,96984.45
2017-11-30T11:23:14.946Z,96982.11
2017-11-30T11:25:44.035Z,96983.44
2017-11-30T11:28:13.137Z,96976.63
2017-11-30T11:30:41.448Z,96975.37
2017-11-30T11:33:09.746Z,96976.05
2017-11-30T11:35:38.108Z,96978.06
2017-11-30T11:38:06.421Z,96972.75
2017-11-30T11:40:34.778Z,96971.51
2017-11-30T11:43:03.103Z,96969.36
2017-11-30T11:45:31.422Z,96975.18
2017-11-30T11:47:59.729Z,96976.65
2017-11-30T11:50:28.051Z,96979.33
2017-11-30T11:52:56.354Z,96981.70
2017-11-30T11:55:24.675Z,96981.26
2017-11-30T11:57:53.788Z,96974.97
2017-11-30T12:00:22.104Z,96979.52
2017-11-30T12:02:50.422Z,96979.08
2017-11-30T12:05:19.481Z,96976.41
2017-11-30T12:07:47.807Z,96974.24
2017-11-30T12:10:16.869Z,96972.30
2017-11-30T12:12:45.183Z,96967.86
2017-11-30T12:15:13.484Z,96974.29
2017-11-30T12:17:41.791Z,96972.16
2017-11-30T12:20:10.062Z,96967.78
2017-11-30T12:22:38.399Z,96968.81
2017-11-30T12:25:06.723Z,96964.47
2017-11-30T12:27:35.032Z,96957.42
2017-11-30T12:30:04.131Z,96948.79
2017-11-30T12:32:32.457Z,96956.08
2017-11-30T12:35:00.779Z,96954.21
2017-11-30T12:37:29.864Z,96952.65
2017-11-30T12:39:58.192Z,96951.69
2017-11-30T12:42:26.502Z,96951.33
2017-11-30T12:44:54.820Z,96954.42
2017-11-30T12:47:23.132Z,96952.56
2017-11-30T12:49:51.458Z,96954.99
2017-11-30T12:52:20.551Z,96953.68
2017-11-30T12:54:49.649Z,96952.91
2017-11-30T12:57:18.718Z,96955.86
2017-11-30T12:59:47.024Z,96958.88
2017-11-30T13:02:15.342Z,96955.38
2017-11-30T13:04:43.642Z,96951.48
2017-11-30T13:07:11.947Z,96947.45
2017-11-30T13:09:41.029Z,96950.80
2017-11-30T13:12:09.346Z,96940.08
2017-11-30T13:14:37.641Z,96944.27
2017-11-30T13:17:05.956Z,96948.98
2017-11-30T13:19:34.258Z,96952.58
2017-11-30T13:22:03.325Z,96949.31
2017-11-30T13:24:31.655Z,96953.48
2017-11-30T13:26:59.982Z,96955.27
2017-11-30T13:29:28.296Z,96958.17
2017-11-30T13:31:56.609Z,96945.84
2017-11-30T13:34:24.906Z,96945.19
2017-11-30T13:36:53.196Z,96951.64
2017-11-30T13:39:22.282Z,96942.78
2017-11-30T13:41:51.374Z,96951.49
2017-11-30T13:44:19.690Z,96948.88
2017-11-30T13:46:48.002Z,96939.14
2017-11-30T13:49:16.303Z,96943.19
2017-11-30T13:51:44.613Z,96944.11
2017-11-30T13:54:12.936Z,96948.56
2017-11-30T13:56:41.292Z,96954.64
2017-11-30T13:59:09.633Z,96951.47
2017-11-30T14:01:37.957Z,96947.95
2017-11-30T14:04:06.283Z,96949.05
2017-11-30T14:06:35.377Z,96954.75
2017-11-30T14:09:04.521Z,96946.00
2017-11-30T14:11:32.774Z,96953.94
2017-11-30T14:14:01.092Z,96956.69
2017-11-30T14:16:29.403Z,96959.11
2017-11-30T14:18:58.525Z,96960.61
2017-11-30T14:21:26.840Z,96962.34
2017-11-30T14:23:55.171Z,96964.10
2017-11-30T14:26:23.486Z,96955.07
2017-11-30T14:28:51.815Z,96957.48
2017-11-30T14:31:20.152Z,96963.38
2017-11-30T14:33:48.479Z,96966.73
2017-11-30T14:36:16.805Z,96964.00
2017-11-30T14:38:45.128Z,96965.34
2017-11-30T14:41:13.446Z,96967.97
2017-11-30T14:43:41.779Z,96964.60
2017-11-30T14:46:10.122Z,96971.59
2017-11-30T14:48:38.426Z,96971.48
2017-11-30T14:51:07.509Z,96971.16
2017-11-30T14:53:35.815Z,96966.95
2017-11-30T14:56:04.131Z,96972.48
2017-11-30T14:58:32.462Z,96970.64
2017-11-30T15:01:00.779Z,96970.28
2017-11-30T15:03:29.086Z,96964.45
2017-11-30T15:05:57.458Z,96969.44
2017-11-30T15:08:25.799Z,96971.54
2017-11-30T15:10:54.158Z,96982.47
2017-11-30T15:13:22.498Z,96981.62
2017-11-30T15:15:50.823Z,96979.54
2017-11-30T15:18:19.150Z,96985.41
2017-11-30T15:20:47.485Z,96984.43
2017-11-30T15:23:15.831Z,96981.96
2017-11-30T15:25:44.176Z,96979.84
2017-11-30T15:28:12.540Z,96974.92
2017-11-30T15:30:40.899Z,96977.54
2017-11-30T15:33:09.260Z,96978.66
2017-11-30T15:35:37.594Z,96975.85
2017-11-30T15:38:06.699Z,96979.53
2017-11-30T15:40:35.829Z,96977.76
2017-11-30T15:43:04.140Z,96979.42
2017-11-30T15:45:32.456Z,96978.50
2017-11-30T15:48:01.602Z,96980.09
2017-11-30T15:50:30.667Z,96984.02
2017-11-30T15:52:58.996Z,96982.08
2017-11-30T15:55:27.342Z,96980.56
2017-11-30T15:57:55.658Z,96976.33
2017-11-30T16:00:23.995Z,96977.63
2017-11-30T16:02:52.308Z,96981.83
2017-11-30T16:05:20.635Z,96989.97
2017-11-30T16:07:48.975Z,96992.52
2017-11-30T16:10:17.306Z,96990.08
2017-11-30T16:12:45.633Z,96988.35
2017-11-30T16:15:14.690Z,96986.72
2017-11-30T16:17:43.011Z,96984.22
2017-11-30T16:20:12.082Z,96982.14
2017-11-30T16:22:40.436Z,96991.84
2017-11-30T16:25:08.750Z,96990.28
2017-11-30T16:27:37.886Z,96997.23
2017-11-30T16:30:06.216Z,96993.64
2017-11-30T16:32:34.562Z,96994.94
2017-11-30T16:35:02.885Z,96991.88
2017-11-30T16:37:32.031Z,96999.42
2017-11-30T16:40:00.375Z,97001.22
2017-11-30T16:42:28.698Z,97000.88
2017-11-30T16:44:57.009Z,97003.20
2017-11-30T16:47:26.427Z,97001.27
2017-11-30T16:49:54.768Z,97005.87
2017-11-30T16:52:23.098Z,97003.45
2017-11-30T16:54:51.427Z,97011.26
2017-11-30T16:57:19.743Z,97010.59
2017-11-30T16:59:48.082Z,97007.60
2017-11-30T17:02:16.383Z,97011.23
2017-11-30T17:04:44.716Z,97008.33
2017-11-30T17:07:13.010Z,97007.88
2017-11-30T17:09:41.354Z,97008.74
2017-11-30T17:12:09.689Z,97013.26
2017-11-30T17:14:38.020Z,97007.80
2017-11-30T17:17:06.360Z,97012.83
2017-11-30T17:19:34.680Z,97017.41
2017-11-30T17:22:03.022Z,97018.72
2017-11-30T17:24:31.351Z,97020.78
2017-11-30T17:26:59.677Z,97023.02
2017-11-30T17:29:27.997Z,97025.42
2017-11-30T17:31:56.315Z,97021.11
2017-11-30T17:34:24.659Z,97026.97
2017-11-30T17:36:53.008Z,97026.64
2017-11-30T17:39:21.329Z,97028.45
2017-11-30T17:41:50.422Z,97024.58
2017-11-30T17:44:19.498Z,97022.05
2017-11-30T17:46:47.825Z,97027.41
2017-11-30T17:49:16.139Z,97026.23
2017-11-30T17:51:44.437Z,97030.84
2017-11-30T17:54:12.771Z,97028.33
2017-11-30T17:56:41.106Z,97031.19
2017-11-30T17:59:10.169Z,97028.73
2017-11-30T18:01:39.265Z,97030.34
2017-11-30T18:04:07.598Z,97030.72
2017-11-30T18:06:35.949Z,97023.73
2017-11-30T18:09:05.046Z,97030.55
2017-11-30T18:11:34.161Z,97030.53
2017-11-30T18:14:02.473Z,97029.28
2017-11-30T18:16:30.822Z,97033.11
2017-11-30T18:19:00.682Z,97033.54
2017-11-30T18:21:29.014Z,97040.60
2017-11-30T18:23:57.326Z,97042.27
2017-11-30T18:26:25.639Z,97045.30
2017-11-30T18:28:54.734Z,97045.69
2017-11-30T18:31:23.809Z,97041.88
2017-11-30T18:33:52.133Z,97044.78
2017-11-30T18:36:20.386Z,97048.53
2017-11-30T18:38:50.349Z,97052.41
2017-11-30T18:41:19.374Z,97043.53
2017-11-30T18:43:47.629Z,97046.11
2017-11-30T18:46:15.962Z,97048.97
2017-11-30T18:48:44.283Z,97053.49
2017-11-30T18:51:12.548Z,97052.67
2017-11-30T18:53:41.597Z,97049.31
2017-11-30T18:56:09.865Z,97050.55
2017-11-30T18:58:38.889Z,97049.80
2017-11-30T19:01:07.160Z,97048.27
2017-11-30T19:03:35.417Z,97047.80
2017-11-30T19:06:03.699Z,97049.14
2017-11-30T19:08:31.950Z,97045.22
2017-11-30T19:11:00.215Z,97040.09
2017-11-30T19:13:28.483Z,97040.51
2017-11-30T19:15:56.742Z,97043.80
2017-11-30T19:18:24.998Z,97048.34
2017-11-30T19:20:53.262Z,97047.42
2017-11-30T19:23:21.838Z,97051.62
2017-11-30T19:25:50.127Z,97049.38
2017-11-30T19:28:18.632Z,97049.27
2017-11-30T19:30:46.946Z,97059.22
2017-11-30T19:33:16.468Z,97052.86
2017-11-30T19:35:45.611Z,97058.73
2017-11-30T19:38:13.973Z,97056.11
2017-11-30T19:40:42.338Z,97059.89
2017-11-30T19:43:10.663Z,97058.64
2017-11-30T19:45:38.991Z,97055.66
2017-11-30T19:48:07.314Z,97057.50
2017-11-30T19:50:35.582Z,97061.77
2017-11-30T19:53:03.857Z,97068.45
2017-11-30T19:55:32.121Z,97067.08
2017-11-30T19:58:00.419Z,97066.23
2017-11-30T20:00:28.694Z,97066.26
2017-11-30T20:02:57.023Z,97076.45
2017-11-30T20:05:25.293Z,97073.38
2017-11-30T20:07:53.558Z,97079.58
2017-11-30T20:10:22.620Z,97076.92
2017-11-30T20:12:50.934Z,97078.45
2017-11-30T20:15:19.198Z,97078.33
2017-11-30T20:17:48.223Z,97078.38
2017-11-30T20:20:16.512Z,97080.81
2017-11-30T20:22:45.537Z,97081.63
2017-11-30T20:25:13.818Z,97083.86
2017-11-30T20:27:42.110Z,97077.35
2017-11-30T20:30:10.389Z,97087.27
2017-11-30T20:32:39.428Z,97087.02
2017-11-30T20:35:07.693Z,97086.98
2017-11-30T20:37:35.963Z,97090.56
2017-11-30T20:40:04.217Z,97091.79
2017-11-30T20:42:33.261Z,97090.97
2017-11-30T20:45:01.547Z,97089.94
2017-11-30T20:47:29.807Z,97086.47
2017-11-30T20:49:58.186Z,97095.98
2017-11-30T20:52:26.509Z,97098.39
2017-11-30T20:54:54.789Z,97093.91
2017-11-30T20:57:23.854Z,97092.36
2017-11-30T20:59:52.118Z,97099.39
2017-11-30T21:02:20.404Z,97099.87
2017-11-30T21:04:48.666Z,97101.97
2017-11-30T21:07:16.998Z,97105.32
2017-11-30T21:09:45.265Z,97103.98
2017-11-30T21:12:14.294Z,97107.42
2017-11-30T21:14:42.566Z,97112.00
2017-11-30T21:17:10.821Z,97109.60
2017-11-30T21:19:39.092Z,97112.45
2017-11-30T21:22:08.111Z,97119.52
2017-11-30T21:24:36.374Z,97115.23
2017-11-30T21:27:04.660Z,97117.25
2017-11-30T21:29:32.967Z,97114.22
2017-11-30T21:32:01.255Z,97114.13
2017-11-30T21:34:29.530Z,97122.88
2017-11-30T21:36:57.786Z,97119.56
2017-11-30T21:39:26.048Z,97115.90
2017-11-30T21:41:54.318Z,97123.41
2017-11-30T21:44:22.595Z,97126.25
2017-11-30T21:46:50.849Z,97114.54
2017-11-30T21:49:19.102Z,97117.45
2017-11-30T21:51:48.131Z,97129.18
2017-11-30T21:54:16.437Z,97124.09
2017-11-30T21:56:45.415Z,97124.71
2017-11-30T21:59:13.723Z,97126.59
2017-11-30T22:01:41.989Z,97131.11
2017-11-30T22:06:43.740Z,97129.39
2017-11-30T22:09:11.994Z,97130.68
2017-11-30T22:11:40.275Z,97133.39
2017-11-30T22:14:08.525Z,97127.02
2017-11-30T22:16:37.588Z,97134.84
2017-11-30T22:19:05.852Z,97126.41
2017-11-30T22:21:34.111Z,97128.50
2017-11-30T22:24:02.371Z,97133.62
2017-11-30T22:26:30.630Z,97128.25
2017-11-30T22:28:59.060Z,97131.14
2017-11-30T22:31:28.125Z,97126.09
2017-11-30T22:33:56.395Z,97127.47
2017-11-30T22:36:24.680Z,97134.66
2017-11-30T22:38:53.001Z,97138.35
2017-11-30T22:41:21.319Z,97137.18
2017-11-30T22:43:49.639Z,97138.73
2017-11-30T22:46:17.978Z,97140.57
2017-11-30T22:48:46.311Z,97146.02
2017-11-30T22:51:14.630Z,97143.92
2017-11-30T22:53:42.934Z,97149.05
2017-11-30T22:56:11.209Z,97152.30
2017-11-30T22:58:39.500Z,97153.47
2017-11-30T23:01:07.814Z,97156.80
2017-11-30T23:03:36.911Z,97148.73
2017-11-30T23:06:05.980Z,97159.91
2017-11-30T23:08:34.298Z,97156.05
2017-11-30T23:11:02.574Z,97165.76
2017-11-30T23:13:30.884Z,97165.37
2017-11-30T23:15:59.199Z,97166.47
2017-11-30T23:18:28.271Z,97170.23
2017-11-30T23:20:56.583Z,97172.03
2017-11-30T23:23:25.641Z,97174.92
2017-11-30T23:25:53.960Z,97172.65
2017-11-30T23:28:23.052Z,97161.06
2017-11-30T23:30:52.094Z,97180.19
2017-11-30T23:33:20.396Z,97178.51
2017-11-30T23:35:48.677Z,97174.02
2017-11-30T23:38:16.954Z,97184.00
2017-11-30T23:40:45.296Z,97184.38
2017-11-30T23:43:13.600Z,97188.87
2017-11-30T23:45:41.926Z,97183.72
2017-11-30T23:48:10.234Z,97189.63
2017-11-30T23:50:38.547Z,97186.12
2017-11-30T23:53:07.622Z,97183.20
2017-11-30T23:55:35.985Z,97193.56
2017-11-30T23:58:04.254Z,97189.83
